Time;durP1;ratioP1;P1;durP2;ratioP2;P2;SDS_P1;SDS_P2;PMS_P1;PMS_P2;Temp;Humidity;BMP_temperature;BMP_pressure;BME280_temperature;BME280_humidity;BME280_pressure;Samples;Min_cycle;Max_cycle;Signal;HPM_P1;HPM_P2
2021/03/04 00:00:47;;;;;;;16.35;13.18;;;14.30;53.10;;;;;;5034634;28;20048;-82
2021/03/04 00:03:14;;;;;;;18.98;14.30;;;14.30;53.20;;;;;;5017265;28;20042;-80
2021/03/04 00:05:39;;;;;;;19.25;14.05;;;14.30;53.20;;;;;;5032339;28;20425;-80
2021/03/04 00:08:06;;;;;;;19.70;15.00;;;14.30;53.20;;;;;;5034856;28;20034;-81
2021/03/04 00:10:34;;;;;;;17.55;14.13;;;14.30;53.20;;;;;;5017509;28;20050;-81
2021/03/04 00:13:00;;;;;;;18.35;13.77;;;14.30;53.20;;;;;;5016165;28;20091;-80
2021/03/04 00:15:30;;;;;;;21.40;14.30;;;14.30;53.30;;;;;;5015609;28;20030;-82
2021/03/04 00:17:56;;;;;;;20.63;14.93;;;14.30;53.30;;;;;;5017362;28;20132;-80
2021/03/04 00:20:26;;;;;;;19.85;15.25;;;14.30;53.20;;;;;;5016953;28;20109;-80
2021/03/04 00:22:52;;;;;;;18.83;14.27;;;14.30;53.90;;;;;;5019071;28;20053;-82
2021/03/04 00:25:20;;;;;;;20.45;14.52;;;14.30;53.30;;;;;;5033419;28;20061;-81
2021/03/04 00:27:49;;;;;;;18.92;13.98;;;14.30;53.30;;;;;;5019431;28;20061;-81
2021/03/04 00:30:17;;;;;;;17.10;13.38;;;14.30;53.30;;;;;;5018015;28;20046;-81
2021/03/04 00:32:43;;;;;;;17.48;13.60;;;14.30;53.10;;;;;;5037246;28;20037;-81
2021/03/04 00:35:09;;;;;;;18.88;13.35;;;14.30;53.10;;;;;;5017434;28;20034;-81
2021/03/04 00:37:36;;;;;;;16.30;12.45;;;14.30;53.00;;;;;;5018349;28;20045;-80
2021/03/04 00:40:06;;;;;;;16.88;12.32;;;14.20;52.90;;;;;;5019341;28;20128;-80
2021/03/04 00:42:32;;;;;;;15.60;11.25;;;14.20;52.80;;;;;;5012985;28;20042;-82
2021/03/04 00:44:58;;;;;;;17.85;12.38;;;14.20;53.00;;;;;;5036869;28;20049;-82
2021/03/04 00:47:24;;;;;;;16.73;11.90;;;14.20;52.80;;;;;;5000727;28;20033;-83
2021/03/04 00:49:49;;;;;;;14.88;11.27;;;14.20;52.90;;;;;;5011808;28;20122;-82
2021/03/04 00:52:15;;;;;;;16.08;11.35;;;14.20;53.00;;;;;;5035622;28;20393;-80
2021/03/04 00:54:41;;;;;;;15.60;11.60;;;14.20;53.00;;;;;;5020943;28;20033;-81
2021/03/04 00:57:07;;;;;;;14.60;10.82;;;14.20;53.10;;;;;;5018504;28;20455;-82
2021/03/04 00:59:33;;;;;;;16.15;11.88;;;14.20;53.10;;;;;;5000321;28;20413;-82
2021/03/04 01:01:59;;;;;;;14.85;11.27;;;14.20;53.20;;;;;;5007349;28;20117;-82
2021/03/04 01:04:25;;;;;;;17.73;11.65;;;14.20;53.30;;;;;;5012638;28;20034;-81
2021/03/04 01:06:51;;;;;;;15.77;11.35;;;14.10;53.20;;;;;;5019288;28;20476;-81
2021/03/04 01:09:17;;;;;;;14.13;11.15;;;14.10;53.20;;;;;;5037471;28;20365;-80
2021/03/04 01:11:43;;;;;;;15.15;10.98;;;14.10;53.20;;;;;;5020045;28;20049;-81
2021/03/04 01:14:09;;;;;;;17.05;11.85;;;14.10;53.20;;;;;;5036763;28;20354;-82
2021/03/04 01:16:34;;;;;;;16.98;12.20;;;14.10;53.30;;;;;;5017763;28;20060;-81
2021/03/04 01:19:00;;;;;;;16.80;12.15;;;14.10;53.30;;;;;;5020350;28;20060;-82
2021/03/04 01:21:26;;;;;;;14.75;11.10;;;14.10;53.40;;;;;;5019927;28;20431;-82
2021/03/04 01:23:53;;;;;;;17.85;12.35;;;14.10;53.40;;;;;;5019700;28;20041;-80
2021/03/04 01:26:19;;;;;;;18.58;12.73;;;14.00;53.30;;;;;;5034278;28;20381;-80
2021/03/04 01:28:45;;;;;;;17.73;12.52;;;14.00;53.30;;;;;;5035795;28;20069;-81
2021/03/04 01:31:11;;;;;;;19.13;13.27;;;14.00;53.40;;;;;;5019464;28;20052;-82
2021/03/04 01:33:37;;;;;;;18.20;13.27;;;14.00;53.40;;;;;;5018508;28;20441;-82
2021/03/04 01:36:03;;;;;;;19.08;13.38;;;14.00;53.50;;;;;;5023523;28;20034;-81
2021/03/04 01:38:28;;;;;;;21.38;14.55;;;14.00;53.50;;;;;;5017920;28;20092;-83
2021/03/04 01:40:54;;;;;;;18.73;13.32;;;14.00;53.40;;;;;;4999797;28;20076;-82
2021/03/04 01:43:20;;;;;;;18.13;13.35;;;14.00;53.40;;;;;;5005071;28;20106;-79
2021/03/04 01:45:46;;;;;;;17.98;13.20;;;14.00;53.60;;;;;;5036608;28;20523;-81
2021/03/04 01:48:12;;;;;;;19.25;13.95;;;13.90;53.50;;;;;;5019228;28;20366;-82
2021/03/04 01:50:38;;;;;;;21.38;13.45;;;14.00;53.60;;;;;;5017301;28;20029;-83
2021/03/04 01:53:04;;;;;;;18.67;14.02;;;14.00;53.60;;;;;;5018855;28;20112;-80
2021/03/04 01:55:30;;;;;;;17.80;13.32;;;13.90;53.50;;;;;;5010855;28;20038;-80
2021/03/04 01:57:57;;;;;;;19.63;14.30;;;13.90;53.60;;;;;;4999899;28;20041;-81
2021/03/04 02:00:23;;;;;;;18.88;13.77;;;13.90;53.50;;;;;;5000532;28;20042;-82
2021/03/04 02:02:49;;;;;;;17.67;13.27;;;13.90;53.40;;;;;;5000256;28;20416;-80
2021/03/04 02:05:17;;;;;;;19.67;13.73;;;13.90;53.40;;;;;;5030706;28;20135;-81
2021/03/04 02:08:03;;;;;;;17.42;12.75;;;13.90;53.40;;;;;;5016510;28;20161;-81
2021/03/04 02:10:40;;;;;;;19.23;13.25;;;13.90;53.40;;;;;;5017243;28;20029;-81
2021/03/04 02:13:33;;;;;;;18.92;13.80;;;13.90;53.50;;;;;;5001591;28;20041;-81
2021/03/04 02:16:17;;;;;;;17.80;12.52;;;13.90;53.50;;;;;;5034739;28;20034;-80
2021/03/04 02:18:50;;;;;;;17.35;12.77;;;13.90;53.60;;;;;;5035528;28;20052;-81
2021/03/04 02:21:16;;;;;;;14.85;10.68;;;13.80;53.40;;;;;;5018607;28;20034;-81
2021/03/04 02:24:00;;;;;;;15.50;11.77;;;13.90;53.40;;;;;;5010648;28;20107;-81
2021/03/04 02:27:02;;;;;;;15.98;11.02;;;13.90;53.20;;;;;;5033709;28;20379;-82
2021/03/04 02:29:34;;;;;;;14.90;10.52;;;13.90;53.20;;;;;;5016059;28;20037;-80
2021/03/04 02:32:01;;;;;;;13.63;10.18;;;13.90;53.10;;;;;;4998900;28;20378;-81
2021/03/04 02:34:28;;;;;;;13.70;9.18;;;13.90;53.00;;;;;;5010242;28;20087;-81
2021/03/04 02:36:56;;;;;;;12.32;9.63;;;13.90;52.90;;;;;;5034132;28;20030;-80
2021/03/04 02:39:24;;;;;;;11.70;8.52;;;13.80;52.90;;;;;;5034892;28;20037;-80
2021/03/04 02:41:51;;;;;;;12.70;9.55;;;13.90;52.90;;;;;;5033534;28;20090;-81
2021/03/04 02:44:20;;;;;;;12.32;8.55;;;13.80;52.80;;;;;;5029647;28;20096;-80
2021/03/04 02:46:47;;;;;;;11.88;8.95;;;13.90;52.80;;;;;;5023469;28;20033;-81
2021/03/04 02:49:14;;;;;;;11.95;8.13;;;13.80;52.80;;;;;;5016398;28;20067;-81
2021/03/04 02:51:41;;;;;;;11.25;8.18;;;13.90;52.90;;;;;;5035515;28;20045;-81
2021/03/04 02:54:08;;;;;;;10.50;7.95;;;13.80;52.90;;;;;;5034228;28;20041;-81
2021/03/04 02:56:36;;;;;;;9.43;6.95;;;13.90;53.00;;;;;;5020917;28;20048;-81
2021/03/04 02:59:07;;;;;;;8.48;6.78;;;13.80;53.10;;;;;;5006936;28;20049;-81
2021/03/04 03:01:34;;;;;;;11.18;7.55;;;13.80;53.10;;;;;;5016672;28;20114;-82
2021/03/04 03:04:01;;;;;;;9.73;6.70;;;13.80;53.20;;;;;;4998402;28;20040;-80
2021/03/04 03:06:28;;;;;;;9.27;7.22;;;13.80;53.20;;;;;;5015622;28;20053;-80
2021/03/04 03:08:54;;;;;;;8.00;6.60;;;13.80;53.20;;;;;;5035409;28;20048;-80
2021/03/04 03:11:21;;;;;;;8.23;6.05;;;13.80;53.20;;;;;;5017723;28;20124;-80
2021/03/04 03:13:49;;;;;;;7.30;5.78;;;13.80;53.20;;;;;;5015768;28;20041;-81
2021/03/04 03:16:16;;;;;;;8.73;6.13;;;13.70;53.20;;;;;;5021109;28;20034;-81
2021/03/04 03:18:44;;;;;;;8.70;5.88;;;13.70;53.20;;;;;;5034880;28;20041;-82
2021/03/04 03:21:10;;;;;;;8.35;6.32;;;13.70;53.20;;;;;;5017803;28;20041;-80
2021/03/04 03:23:36;;;;;;;8.50;5.80;;;13.70;53.30;;;;;;5013363;28;20414;-81
2021/03/04 03:26:02;;;;;;;7.40;5.57;;;13.70;53.30;;;;;;5012545;28;20041;-81
2021/03/04 03:28:28;;;;;;;7.22;5.72;;;13.70;53.30;;;;;;5034221;28;20042;-81
2021/03/04 03:30:57;;;;;;;6.80;5.25;;;13.70;53.30;;;;;;5034061;28;20041;-81
2021/03/04 03:33:24;;;;;;;7.75;6.15;;;13.70;53.30;;;;;;5035308;28;20045;-82
2021/03/04 03:35:50;;;;;;;7.40;5.53;;;13.60;53.30;;;;;;5015386;28;20398;-82
2021/03/04 03:38:17;;;;;;;7.85;5.25;;;13.60;53.30;;;;;;5032094;28;20048;-81
2021/03/04 03:40:47;;;;;;;7.35;5.63;;;13.60;53.20;;;;;;4998035;28;20447;-83
2021/03/04 03:43:15;;;;;;;8.23;5.95;;;13.60;53.20;;;;;;4997805;28;20438;-82
2021/03/04 03:45:45;;;;;;;7.28;5.70;;;13.60;53.30;;;;;;5026984;28;20357;-80
2021/03/04 03:48:15;;;;;;;7.45;5.57;;;13.60;53.30;;;;;;5034826;28;20049;-80
2021/03/04 03:50:48;;;;;;;6.95;5.32;;;13.60;53.20;;;;;;5017658;28;20041;-81
2021/03/04 03:53:15;;;;;;;7.25;5.22;;;13.60;53.20;;;;;;5034632;28;20034;-80
2021/03/04 03:55:45;;;;;;;7.82;5.63;;;13.60;53.20;;;;;;5033366;28;20037;-82
2021/03/04 03:58:12;;;;;;;6.45;5.53;;;13.60;53.10;;;;;;5018565;28;20060;-81
2021/03/04 04:00:38;;;;;;;6.32;4.90;;;13.60;53.20;;;;;;5036536;28;20117;-80
2021/03/04 04:03:05;;;;;;;5.18;4.18;;;13.50;53.20;;;;;;5037195;28;20351;-80
2021/03/04 04:05:33;;;;;;;6.68;4.70;;;13.50;53.10;;;;;;5025981;28;20045;-81
2021/03/04 04:08:00;;;;;;;5.25;4.38;;;13.60;53.10;;;;;;5002377;28;20050;-80
2021/03/04 04:10:30;;;;;;;5.18;4.28;;;13.50;53.10;;;;;;5001429;28;20038;-81
2021/03/04 04:12:56;;;;;;;5.40;3.70;;;13.50;53.20;;;;;;5035482;28;20037;-81
2021/03/04 04:15:24;;;;;;;4.80;3.90;;;13.50;53.10;;;;;;5010090;28;20038;-81
2021/03/04 04:17:50;;;;;;;5.47;3.88;;;13.50;53.00;;;;;;5019442;28;20096;-80
2021/03/04 04:20:20;;;;;;;4.63;3.47;;;13.50;52.90;;;;;;5007170;28;20442;-80
2021/03/04 04:22:47;;;;;;;4.30;3.53;;;13.50;53.00;;;;;;5038283;28;20056;-80
2021/03/04 04:25:14;;;;;;;3.30;3.00;;;13.50;52.90;;;;;;5037589;28;20041;-82
2021/03/04 04:27:41;;;;;;;4.72;3.40;;;13.50;53.40;;;;;;5037312;28;20340;-82
2021/03/04 04:30:09;;;;;;;4.25;3.03;;;13.50;52.60;;;;;;5034003;28;20371;-81
2021/03/04 04:32:35;;;;;;;4.63;3.22;;;13.50;52.60;;;;;;5018497;28;20030;-81
2021/03/04 04:35:02;;;;;;;3.70;3.10;;;13.50;52.50;;;;;;5018356;28;20038;-81
2021/03/04 04:37:28;;;;;;;2.80;2.50;;;13.50;52.50;;;;;;5001192;28;20465;-82
2021/03/04 04:39:54;;;;;;;3.47;2.80;;;13.50;52.50;;;;;;5022142;28;20037;-81
2021/03/04 04:42:20;;;;;;;2.67;2.22;;;13.50;52.40;;;;;;5020024;28;20037;-80
2021/03/04 04:44:47;;;;;;;5.38;2.45;;;13.50;52.40;;;;;;5034709;28;20034;-82
2021/03/04 04:47:12;;;;;;;3.55;2.65;;;13.50;52.40;;;;;;5020826;28;20038;-80
2021/03/04 04:49:38;;;;;;;2.70;2.30;;;13.50;52.40;;;;;;5037001;28;20358;-82
2021/03/04 04:52:04;;;;;;;6.13;3.30;;;13.50;52.30;;;;;;5019971;28;20037;-83
2021/03/04 04:54:39;;;;;;;4.30;2.92;;;13.50;51.70;;;;;;5017272;28;20046;-83
2021/03/04 04:57:05;;;;;;;3.35;2.60;;;13.40;51.30;;;;;;4985624;28;20042;-80
2021/03/04 04:59:31;;;;;;;4.43;2.40;;;13.30;51.80;;;;;;5000159;28;20061;-80
2021/03/04 05:01:59;;;;;;;8.48;2.55;;;13.40;53.00;;;;;;5034951;28;20403;-83
2021/03/04 05:04:28;;;;;;;6.35;2.70;;;13.40;53.90;;;;;;5035581;28;20030;-87
2021/03/04 05:06:54;;;;;;;6.97;2.17;;;13.50;54.60;;;;;;5016930;28;20069;-83
2021/03/04 05:09:26;;;;;;;9.07;1.90;;;13.50;54.80;;;;;;5033050;28;20049;-81
2021/03/04 05:11:52;;;;;;;3.40;1.27;;;13.60;54.80;;;;;;5036703;28;20037;-79
2021/03/04 05:14:18;;;;;;;5.07;1.42;;;13.60;54.80;;;;;;5037206;28;20074;-80
2021/03/04 05:16:44;;;;;;;4.88;1.23;;;13.70;55.10;;;;;;5019065;28;20362;-83
2021/03/04 05:19:10;;;;;;;2.60;1.30;;;13.80;55.60;;;;;;5029459;28;20052;-83
2021/03/04 05:21:39;;;;;;;6.57;1.52;;;13.90;55.70;;;;;;5001300;28;20041;-86
2021/03/04 05:24:05;;;;;;;7.93;1.77;;;14.00;56.10;;;;;;4983624;28;20095;-81
2021/03/04 05:26:31;;;;;;;8.13;1.73;;;14.20;56.90;;;;;;5008270;28;20540;-81
2021/03/04 05:29:15;;;;;;;7.20;1.17;;;14.30;57.00;;;;;;5036846;28;20037;-89
2021/03/04 05:31:41;;;;;;;7.63;1.40;;;14.40;57.40;;;;;;5018763;28;20477;-85
2021/03/04 05:34:09;;;;;;;7.35;1.10;;;14.50;57.60;;;;;;4988410;28;20474;-85
2021/03/04 05:36:37;;;;;;;4.40;1.10;;;14.60;57.60;;;;;;4983887;28;20049;-86
2021/03/04 05:39:09;;;;;;;4.88;1.13;;;14.70;57.70;;;;;;5011795;28;20469;-84
2021/03/04 05:41:36;;;;;;;7.72;1.13;;;14.70;57.50;;;;;;5019560;28;20037;-82
2021/03/04 05:44:07;;;;;;;6.03;1.00;;;14.70;57.70;;;;;;5017823;28;20052;-83
2021/03/04 05:46:34;;;;;;;3.47;1.00;;;14.80;58.20;;;;;;4987234;28;20046;-81
2021/03/04 05:49:01;;;;;;;2.88;0.85;;;14.90;57.90;;;;;;5005934;28;20120;-82
2021/03/04 05:51:36;;;;;;;5.90;1.25;;;15.00;57.90;;;;;;5002752;28;20049;-81
2021/03/04 05:54:05;;;;;;;4.45;1.13;;;15.00;58.10;;;;;;5034212;28;20041;-83
2021/03/04 05:56:35;;;;;;;5.65;0.80;;;15.10;58.40;;;;;;5018933;28;20037;-82
2021/03/04 05:59:02;;;;;;;2.58;0.52;;;15.10;58.20;;;;;;5002686;28;20053;-83
2021/03/04 06:01:29;;;;;;;7.90;1.00;;;15.20;58.30;;;;;;5019088;28;20033;-84
2021/03/04 06:03:55;;;;;;;2.42;0.70;;;15.20;58.10;;;;;;5008654;28;20049;-82
2021/03/04 06:06:21;;;;;;;3.05;0.75;;;15.20;58.00;;;;;;4999685;28;20033;-82
2021/03/04 06:08:47;;;;;;;2.47;0.50;;;15.30;58.20;;;;;;5006701;28;20497;-83
2021/03/04 06:11:13;;;;;;;3.67;0.50;;;15.30;58.90;;;;;;5002047;28;20442;-81
2021/03/04 06:13:39;;;;;;;2.97;0.40;;;15.30;58.30;;;;;;5018711;28;20065;-83
2021/03/04 06:16:08;;;;;;;3.35;0.55;;;15.40;58.40;;;;;;5018739;28;20056;-83
2021/03/04 06:18:42;;;;;;;6.75;0.98;;;15.50;58.50;;;;;;5018245;28;20371;-83
2021/03/04 06:21:22;;;;;;;8.80;1.70;;;15.50;58.50;;;;;;5016256;28;20469;-80
2021/03/04 06:23:49;;;;;;;4.05;0.55;;;15.50;58.70;;;;;;5018447;28;20458;-80
2021/03/04 06:26:28;;;;;;;6.43;1.05;;;15.60;58.70;;;;;;5016617;28;20123;-80
2021/03/04 06:28:57;;;;;;;5.72;0.90;;;15.60;58.50;;;;;;5018048;28;20120;-80
2021/03/04 06:31:23;;;;;;;10.77;1.17;;;15.70;58.50;;;;;;5017984;28;20025;-83
2021/03/04 06:33:54;;;;;;;8.55;1.10;;;15.70;58.50;;;;;;5035925;28;20484;-82
2021/03/04 06:36:25;;;;;;;5.35;0.85;;;15.70;58.30;;;;;;5001908;28;20045;-89
2021/03/04 06:38:56;;;;;;;7.80;1.38;;;15.70;58.10;;;;;;5002229;28;20045;-84
2021/03/04 06:41:22;;;;;;;6.60;1.02;;;15.70;58.30;;;;;;5018135;28;20163;-81
2021/03/04 06:44:02;;;;;;;6.03;1.85;;;15.80;58.30;;;;;;5035547;28;20103;-82
2021/03/04 06:46:28;;;;;;;6.60;1.02;;;15.70;56.70;;;;;;5030658;28;20060;-82
2021/03/04 06:48:54;;;;;;;2.25;0.80;;;15.70;57.20;;;;;;5018052;28;20037;-82
2021/03/04 06:51:20;;;;;;;4.03;1.10;;;15.80;57.30;;;;;;5018192;28;20071;-82
2021/03/04 06:53:51;;;;;;;5.50;0.95;;;15.70;57.00;;;;;;5001781;28;20049;-81
2021/03/04 06:56:28;;;;;;;7.28;1.20;;;15.80;57.10;;;;;;5017789;28;20168;-80
2021/03/04 06:59:01;;;;;;;6.15;0.98;;;15.70;56.70;;;;;;5035116;28;20055;-89
2021/03/04 07:01:27;;;;;;;3.58;0.95;;;15.80;57.10;;;;;;5017999;28;20048;-80
2021/03/04 07:03:54;;;;;;;6.22;1.05;;;15.80;57.10;;;;;;5034900;28;20060;-79
2021/03/04 07:06:21;;;;;;;6.65;1.60;;;15.90;56.80;;;;;;5035610;28;20062;-81
2021/03/04 07:08:49;;;;;;;5.43;1.00;;;15.90;55.30;;;;;;5034910;28;20470;-78
2021/03/04 07:11:18;;;;;;;3.28;0.80;;;15.80;55.50;;;;;;5035212;28;20072;-79
2021/03/04 07:13:45;;;;;;;10.48;0.95;;;15.80;56.00;;;;;;5035452;28;20045;-79
2021/03/04 07:16:19;;;;;;;4.43;0.60;;;15.80;56.20;;;;;;5035462;28;20037;-80
2021/03/04 07:18:47;;;;;;;;;;;15.80;56.30;;;;;;5035329;28;20041;-79
2021/03/04 07:21:17;;;;;;;2.30;0.63;;;15.80;56.30;;;;;;5034794;28;19917;-79
2021/03/04 07:23:45;;;;;;;3.90;0.70;;;15.80;56.40;;;;;;5017453;28;20092;-79
2021/03/04 07:26:12;;;;;;;6.63;0.70;;;15.80;56.30;;;;;;5017228;28;20477;-80
2021/03/04 07:28:43;;;;;;;1.60;0.40;;;15.80;56.30;;;;;;5035097;28;20159;-78
2021/03/04 07:31:11;;;;;;;3.40;0.75;;;15.80;56.30;;;;;;5034619;28;20510;-79
2021/03/04 07:33:47;;;;;;;4.38;0.77;;;15.80;56.20;;;;;;5034900;28;20053;-82
2021/03/04 07:36:18;;;;;;;3.22;0.70;;;15.80;55.00;;;;;;5035518;28;20069;-80
2021/03/04 07:38:56;;;;;;;1.48;0.25;;;15.80;55.00;;;;;;5035175;28;20111;-79
2021/03/04 07:41:22;;;;;;;1.85;0.50;;;15.70;56.10;;;;;;5035149;28;20057;-80
2021/03/04 07:43:57;;;;;;;5.28;0.60;;;15.70;55.60;;;;;;5017919;28;20083;-80
2021/03/04 07:46:26;;;;;;;3.67;0.40;;;15.70;55.70;;;;;;5034483;28;20056;-80
2021/03/04 07:48:52;;;;;;;1.92;0.40;;;15.70;55.80;;;;;;5017557;28;20037;-79
2021/03/04 07:51:19;;;;;;;2.65;0.43;;;15.70;55.80;;;;;;5017546;28;20081;-80
2021/03/04 07:53:46;;;;;;;1.52;0.40;;;15.70;55.70;;;;;;5034937;28;20350;-79
2021/03/04 07:56:42;;;;;;;2.05;0.50;;;15.70;55.80;;;;;;5034934;28;20045;-79
2021/03/04 07:59:12;;;;;;;1.80;0.40;;;15.70;55.70;;;;;;5021941;28;20111;-81
2021/03/04 08:01:43;;;;;;;1.52;0.57;;;15.70;55.70;;;;;;5017331;28;20033;-81
2021/03/04 08:04:27;;;;;;;3.10;0.40;;;15.60;55.60;;;;;;5034907;28;20068;-81
2021/03/04 08:06:54;;;;;;;2.15;0.40;;;15.60;55.70;;;;;;5034908;28;20045;-81
2021/03/04 08:09:29;;;;;;;1.42;0.43;;;15.60;55.70;;;;;;5016835;28;20049;-80
2021/03/04 08:12:06;;;;;;;3.47;0.52;;;15.60;55.70;;;;;;5017172;28;20137;-81
2021/03/04 08:14:34;;;;;;;1.00;0.30;;;15.50;55.60;;;;;;5033117;28;20049;-81
2021/03/04 08:17:00;;;;;;;1.42;0.40;;;15.50;55.60;;;;;;5033545;28;20073;-81
2021/03/04 08:19:30;;;;;;;2.42;0.30;;;15.50;55.50;;;;;;5016130;28;20559;-82
2021/03/04 08:22:06;;;;;;;4.22;0.40;;;15.50;55.70;;;;;;5012516;28;20053;-82
2021/03/04 08:24:33;;;;;;;2.95;0.30;;;15.50;55.70;;;;;;5015942;28;20053;-80
2021/03/04 08:27:00;;;;;;;1.98;0.20;;;15.50;55.70;;;;;;5033440;28;20104;-82
2021/03/04 08:29:26;;;;;;;3.40;0.30;;;15.50;55.80;;;;;;5033856;28;20049;-81
2021/03/04 08:31:55;;;;;;;3.75;0.32;;;15.60;55.90;;;;;;5016592;28;20045;-82
2021/03/04 08:34:21;;;;;;;1.98;0.30;;;15.60;55.90;;;;;;5049701;28;20095;-81
2021/03/04 08:36:50;;;;;;;1.98;0.30;;;15.60;56.00;;;;;;5016820;28;20469;-81
2021/03/04 08:39:22;;;;;;;2.47;0.28;;;15.60;56.10;;;;;;5034067;28;20037;-80
2021/03/04 08:41:48;;;;;;;1.98;0.20;;;15.60;56.10;;;;;;5016727;28;20416;-80
2021/03/04 08:44:16;;;;;;;1.75;0.47;;;15.70;56.30;;;;;;5037312;28;20407;-80
2021/03/04 08:46:46;;;;;;;1.38;0.30;;;15.70;56.30;;;;;;5020947;28;20067;-79
2021/03/04 08:49:20;;;;;;;3.25;0.32;;;15.70;56.40;;;;;;5037837;28;20046;-79
2021/03/04 08:51:47;;;;;;;4.07;0.40;;;15.70;56.30;;;;;;5020664;28;20386;-79
2021/03/04 08:54:23;;;;;;;1.88;0.40;;;15.70;57.10;;;;;;5020508;28;20065;-78
2021/03/04 08:57:05;;;;;;;2.67;0.30;;;15.80;56.60;;;;;;5019904;28;20069;-81
2021/03/04 08:59:34;;;;;;;2.92;0.20;;;15.80;57.20;;;;;;5036424;28;20072;-79
2021/03/04 09:02:00;;;;;;;3.85;0.57;;;15.80;57.60;;;;;;5019335;28;20450;-80
2021/03/04 09:04:28;;;;;;;5.50;0.73;;;15.80;57.60;;;;;;5015690;28;20037;-79
2021/03/04 09:06:56;;;;;;;8.60;0.60;;;15.90;57.90;;;;;;5019332;28;20045;-80
2021/03/04 09:09:29;;;;;;;8.95;0.98;;;15.90;57.80;;;;;;5036411;28;20516;-80
2021/03/04 09:11:56;;;;;;;;;;;15.90;58.10;;;;;;5019514;28;20044;-79
2021/03/04 09:14:36;;;;;;;16.60;0.82;;;15.90;57.80;;;;;;5019278;28;19929;-80
2021/03/04 09:17:05;;;;;;;6.90;0.70;;;15.90;58.00;;;;;;5019668;28;20125;-79
2021/03/04 09:19:33;;;;;;;17.35;1.35;;;16.00;58.10;;;;;;5037377;28;20076;-79
2021/03/04 09:22:11;;;;;;;6.53;0.95;;;16.00;58.10;;;;;;5036943;28;20046;-84
2021/03/04 09:24:40;;;;;;;3.10;0.40;;;16.00;58.10;;;;;;5036460;28;20037;-81
2021/03/04 09:27:08;;;;;;;2.88;0.40;;;16.10;58.70;;;;;;5018644;28;20057;-79
2021/03/04 09:29:38;;;;;;;3.70;0.40;;;16.00;58.20;;;;;;5036649;28;20118;-78
2021/03/04 09:32:04;;;;;;;2.75;0.50;;;16.10;58.20;;;;;;5036978;28;20071;-80
2021/03/04 09:34:35;;;;;;;4.15;0.50;;;16.10;58.10;;;;;;5036734;28;20037;-78
2021/03/04 09:37:24;;;;;;;2.47;0.40;;;16.10;58.10;;;;;;5036687;28;20037;-79
2021/03/04 09:39:52;;;;;;;5.72;0.63;;;16.10;57.90;;;;;;5019463;28;20049;-78
2021/03/04 09:42:20;;;;;;;1.88;0.40;;;16.10;58.10;;;;;;5037236;28;20045;-78
2021/03/04 09:44:54;;;;;;;6.22;0.65;;;16.20;58.10;;;;;;5036593;28;20111;-79
2021/03/04 09:47:23;;;;;;;2.88;0.47;;;16.20;58.00;;;;;;5052396;28;20124;-78
2021/03/04 09:49:50;;;;;;;3.17;0.20;;;16.20;58.00;;;;;;5036561;28;20041;-78
2021/03/04 09:52:23;;;;;;;6.78;0.50;;;16.20;57.90;;;;;;5036432;28;20041;-78
2021/03/04 09:54:49;;;;;;;2.73;0.50;;;16.20;57.90;;;;;;5036022;28;20057;-79
2021/03/04 09:57:20;;;;;;;2.45;0.50;;;16.20;57.90;;;;;;5036455;28;20041;-80
2021/03/04 09:59:51;;;;;;;1.90;0.28;;;16.20;57.80;;;;;;5036412;28;20048;-79
2021/03/04 10:02:19;;;;;;;5.20;0.60;;;16.20;57.90;;;;;;5036394;28;20514;-81
2021/03/04 10:05:16;;;;;;;4.57;0.63;;;16.20;57.80;;;;;;5035573;28;20133;-80
2021/03/04 10:07:42;;;;;;;1.30;0.30;;;16.20;57.70;;;;;;5019218;28;20083;-80
2021/03/04 10:10:13;;;;;;;3.90;0.50;;;16.20;57.80;;;;;;5035764;28;20425;-79
2021/03/04 10:12:57;;;;;;;3.03;0.30;;;16.20;57.70;;;;;;5051831;28;20098;-78
2021/03/04 10:15:34;;;;;;;2.42;0.60;;;16.20;57.60;;;;;;5036032;28;20057;-79
2021/03/04 10:18:05;;;;;;;3.33;0.68;;;16.20;57.70;;;;;;5036176;28;20049;-80
2021/03/04 10:20:31;;;;;;;2.58;0.60;;;16.20;57.80;;;;;;5035916;28;20046;-80
2021/03/04 10:22:57;;;;;;;3.90;0.40;;;16.20;57.80;;;;;;5035691;28;20450;-80
2021/03/04 10:25:23;;;;;;;4.35;0.45;;;16.30;57.80;;;;;;5035816;28;20508;-78
2021/03/04 10:27:50;;;;;;;2.00;0.30;;;16.30;57.80;;;;;;5035635;28;20187;-78
2021/03/04 10:30:17;;;;;;;2.50;0.40;;;16.30;57.80;;;;;;5035375;28;20084;-80
2021/03/04 10:32:43;;;;;;;2.47;0.30;;;16.30;57.80;;;;;;5035653;28;20045;-78
2021/03/04 10:35:11;;;;;;;3.17;0.47;;;16.30;57.80;;;;;;5035424;28;20041;-81
2021/03/04 10:37:38;;;;;;;3.28;0.60;;;16.30;57.80;;;;;;5034901;28;20049;-78
2021/03/04 10:40:05;;;;;;;2.97;0.40;;;16.30;57.80;;;;;;5035355;28;20476;-79
2021/03/04 10:42:31;;;;;;;1.75;0.50;;;16.40;57.80;;;;;;5051023;28;20056;-78
2021/03/04 10:44:59;;;;;;;1.38;0.50;;;16.40;57.70;;;;;;5035224;28;20099;-78
2021/03/04 10:47:31;;;;;;;3.45;0.60;;;16.40;57.80;;;;;;5035490;28;20442;-82
2021/03/04 10:49:58;;;;;;;4.18;0.40;;;16.40;57.70;;;;;;5035531;28;20053;-80
2021/03/04 10:52:24;;;;;;;4.53;0.90;;;16.40;57.60;;;;;;5035373;28;20508;-82
2021/03/04 10:54:51;;;;;;;5.43;1.00;;;16.40;57.60;;;;;;5050748;28;20053;-79
2021/03/04 10:57:18;;;;;;;4.55;0.98;;;16.50;57.60;;;;;;5035459;28;20346;-80
2021/03/04 10:59:43;;;;;;;6.10;0.90;;;16.50;57.60;;;;;;5035322;28;20045;-79
2021/03/04 11:02:09;;;;;;;11.50;1.17;;;16.50;57.60;;;;;;5035640;28;20347;-79
2021/03/04 11:04:35;;;;;;;10.85;1.35;;;16.50;57.50;;;;;;5035601;28;20045;-79
2021/03/04 11:07:01;;;;;;;8.23;1.50;;;16.50;57.40;;;;;;5034635;28;20053;-80
2021/03/04 11:09:27;;;;;;;23.77;3.30;;;16.50;57.40;;;;;;5035376;28;20045;-79
2021/03/04 11:11:52;;;;;;;9.13;1.23;;;16.50;57.40;;;;;;5050933;28;20075;-79
2021/03/04 11:14:19;;;;;;;8.43;1.77;;;16.50;57.20;;;;;;5018084;28;20069;-81
2021/03/04 11:16:45;;;;;;;6.90;1.38;;;16.50;57.20;;;;;;5017936;28;20081;-80
2021/03/04 11:19:11;;;;;;;6.65;1.58;;;16.50;57.10;;;;;;5034675;28;20056;-79
2021/03/04 11:21:37;;;;;;;5.20;0.80;;;16.50;57.20;;;;;;5034848;28;20056;-79
2021/03/04 11:24:06;;;;;;;7.93;2.35;;;16.50;57.20;;;;;;5034924;28;20045;-79
2021/03/04 11:26:31;;;;;;;7.38;1.40;;;16.50;57.10;;;;;;5034891;28;20124;-78
2021/03/04 11:28:57;;;;;;;7.20;1.48;;;16.50;57.10;;;;;;5034949;28;20132;-79
2021/03/04 11:31:23;;;;;;;7.10;1.20;;;16.50;57.10;;;;;;5034854;28;20049;-78
2021/03/04 11:33:49;;;;;;;7.05;1.25;;;16.50;57.10;;;;;;5017254;28;20052;-78
2021/03/04 11:36:15;;;;;;;9.32;1.40;;;16.50;57.10;;;;;;5034526;28;20046;-78
2021/03/04 11:38:40;;;;;;;5.68;1.10;;;16.50;57.10;;;;;;5017379;28;20057;-79
2021/03/04 11:41:06;;;;;;;5.40;1.13;;;16.50;57.00;;;;;;5034836;28;20137;-80
2021/03/04 11:43:32;;;;;;;4.90;1.02;;;16.50;57.00;;;;;;5034989;28;20038;-78
2021/03/04 11:45:58;;;;;;;9.98;1.38;;;16.50;57.00;;;;;;5034785;28;20033;-80
2021/03/04 11:48:24;;;;;;;5.88;1.80;;;16.50;57.00;;;;;;5034226;28;20056;-78
2021/03/04 11:50:50;;;;;;;6.70;1.20;;;16.50;56.90;;;;;;5035247;28;20401;-84
2021/03/04 11:53:18;;;;;;;5.05;1.30;;;16.50;56.80;;;;;;5017601;28;20437;-81
2021/03/04 11:55:44;;;;;;;5.25;1.40;;;16.50;56.80;;;;;;5034476;28;20184;-81
2021/03/04 11:58:10;;;;;;;8.90;1.52;;;16.50;56.80;;;;;;5017194;28;20378;-80
2021/03/04 12:00:36;;;;;;;6.28;0.80;;;16.50;56.80;;;;;;5034321;28;20088;-82
2021/03/04 12:03:02;;;;;;;5.65;1.10;;;16.50;56.70;;;;;;5034964;28;20492;-79
2021/03/04 12:05:27;;;;;;;13.70;1.58;;;16.50;56.00;;;;;;5034805;28;20046;-80
2021/03/04 12:07:53;;;;;;;11.45;1.70;;;16.50;56.10;;;;;;5034805;28;20248;-80
2021/03/04 12:10:19;;;;;;;11.18;1.65;;;16.50;56.30;;;;;;5034722;28;20473;-79
2021/03/04 12:12:45;;;;;;;15.98;1.65;;;16.50;56.30;;;;;;5017274;28;20048;-80
2021/03/04 12:15:14;;;;;;;19.15;2.30;;;16.50;56.30;;;;;;5017210;28;20450;-79
2021/03/04 12:17:40;;;;;;;10.25;1.02;;;16.50;56.30;;;;;;5035260;28;20218;-81
2021/03/04 12:20:06;;;;;;;10.40;1.70;;;16.50;56.30;;;;;;5038734;28;20068;-80
2021/03/04 12:22:32;;;;;;;18.90;2.25;;;16.50;56.30;;;;;;5054012;28;20380;-80
2021/03/04 12:24:58;;;;;;;8.60;1.75;;;16.50;56.40;;;;;;5038496;28;20038;-82
2021/03/04 12:27:24;;;;;;;16.77;3.15;;;16.50;56.30;;;;;;5037804;28;20049;-81
2021/03/04 12:29:50;;;;;;;16.40;2.28;;;16.50;55.90;;;;;;5038856;28;20042;-81
2021/03/04 12:32:18;;;;;;;14.13;2.40;;;16.50;54.00;;;;;;5038433;28;20361;-83
2021/03/04 12:34:44;;;;;;;11.27;1.90;;;16.50;52.80;;;;;;5020680;28;20049;-83
2021/03/04 12:37:10;;;;;;;7.05;1.98;;;16.50;53.80;;;;;;5020703;28;20049;-81
2021/03/04 12:39:36;;;;;;;16.52;2.67;;;16.40;54.40;;;;;;5020831;28;20060;-81
2021/03/04 12:42:02;;;;;;;8.35;1.52;;;16.40;54.70;;;;;;5020710;28;20122;-84
2021/03/04 12:44:28;;;;;;;8.40;1.85;;;16.50;54.90;;;;;;5038231;28;20056;-82
2021/03/04 12:46:54;;;;;;;11.02;1.67;;;16.50;55.00;;;;;;5020721;28;20045;-83
2021/03/04 12:49:20;;;;;;;10.50;1.73;;;16.50;55.00;;;;;;5020328;28;20124;-82